createdAt,value
2022-08-01T00:00:40.913Z,1.00
2022-08-01T00:03:08.351Z,1.17
2022-08-01T00:05:35.870Z,1.02
2022-08-01T00:08:03.288Z,1.20
2022-08-01T00:10:30.706Z,1.08
2022-08-01T00:12:58.128Z,1.15
2022-08-01T00:15:25.556Z,1.30
2022-08-01T00:17:54.269Z,1.10
2022-08-01T00:20:21.716Z,1.05
2022-08-01T00:22:49.111Z,1.10
2022-08-01T00:25:16.531Z,1.10
2022-08-01T00:27:43.961Z,1.00
2022-08-01T00:30:14.653Z,1.15
2022-08-01T00:32:43.323Z,1.20
2022-08-01T00:35:12.860Z,1.40
2022-08-01T00:37:40.291Z,1.20
2022-08-01T00:40:09.062Z,1.40
2022-08-01T00:42:40.355Z,1.27
2022-08-01T00:45:11.334Z,1.13
2022-08-01T00:47:38.814Z,1.20
2022-08-01T00:50:07.084Z,0.93
2022-08-01T00:52:35.996Z,1.33
2022-08-01T00:55:03.604Z,1.10
2022-08-01T00:58:03.088Z,1.15
2022-08-01T01:00:19.962Z,1.20
2022-08-01T01:02:55.172Z,1.30
2022-08-01T01:05:22.714Z,1.23
2022-08-01T01:07:58.359Z,1.10
2022-08-01T01:10:34.322Z,1.30
2022-08-01T01:13:06.382Z,1.50
2022-08-01T01:15:40.446Z,1.50
2022-08-01T01:20:40.821Z,1.30
2022-08-01T01:23:23.385Z,1.30
2022-08-01T01:26:12.259Z,1.13
2022-08-01T01:29:06.454Z,1.10
2022-08-01T01:31:43.637Z,1.20
2022-08-01T01:34:14.400Z,1.30
2022-08-01T01:36:44.456Z,1.00
2022-08-01T01:39:15.104Z,1.60
2022-08-01T01:41:44.959Z,1.15
2022-08-01T01:44:14.107Z,1.15
2022-08-01T01:46:44.240Z,1.20
2022-08-01T01:49:12.697Z,1.63
2022-08-01T01:51:53.302Z,1.30
2022-08-01T01:54:35.018Z,1.80
2022-08-01T01:57:05.195Z,1.30
2022-08-01T01:59:36.381Z,1.55
2022-08-01T02:02:07.533Z,1.63
2022-08-01T02:04:38.894Z,1.42
2022-08-01T02:07:09.840Z,1.40
2022-08-01T02:09:39.114Z,1.65
2022-08-01T02:12:09.128Z,1.70
2022-08-01T02:14:37.627Z,1.40
2022-08-01T02:17:06.837Z,1.40
2022-08-01T02:19:38.016Z,1.50
2022-08-01T02:22:09.952Z,1.40
2022-08-01T02:24:41.488Z,1.38
2022-08-01T02:27:12.286Z,1.60
2022-08-01T02:29:42.817Z,1.30
2022-08-01T02:32:13.857Z,1.40
2022-08-01T02:34:42.956Z,1.38
2022-08-01T02:37:11.776Z,1.33
2022-08-01T02:39:40.673Z,1.52
2022-08-01T02:42:10.704Z,1.77
2022-08-01T02:44:42.034Z,1.75
2022-08-01T02:47:11.290Z,1.30
2022-08-01T02:49:44.132Z,1.67
2022-08-01T02:52:17.389Z,1.42
2022-08-01T02:54:47.489Z,1.50
2022-08-01T02:57:16.775Z,1.25
2022-08-01T02:59:48.703Z,1.50
2022-08-01T03:02:19.559Z,1.40
2022-08-01T03:04:48.073Z,1.33
2022-08-01T03:07:19.044Z,1.67
2022-08-01T03:09:49.795Z,1.80
2022-08-01T03:12:21.636Z,1.63
2022-08-01T03:14:51.388Z,1.88
2022-08-01T03:17:23.014Z,1.90
2022-08-01T03:19:52.045Z,1.60
2022-08-01T03:22:23.157Z,1.63
2022-08-01T03:24:54.600Z,1.50
2022-08-01T03:27:25.155Z,1.80
2022-08-01T03:29:53.553Z,1.25
2022-08-01T03:32:23.905Z,1.70
2022-08-01T03:34:51.445Z,1.23
2022-08-01T03:37:25.503Z,1.70
2022-08-01T03:42:30.740Z,1.58
2022-08-01T03:45:01.209Z,1.40
2022-08-01T03:47:34.344Z,1.73
2022-08-01T03:50:12.441Z,1.58
2022-08-01T03:52:43.575Z,1.42
2022-08-01T03:55:13.282Z,1.52
2022-08-01T03:57:41.084Z,1.73
2022-08-01T04:00:10.188Z,1.75
2022-08-01T04:02:40.112Z,1.65
2022-08-01T04:05:08.523Z,1.55
2022-08-01T04:07:37.417Z,1.70
2022-08-01T04:10:05.731Z,1.40
2022-08-01T04:12:33.765Z,1.60
2022-08-01T04:15:01.328Z,1.38
2022-08-01T04:17:28.746Z,1.63
2022-08-01T04:19:57.520Z,1.80
2022-08-01T04:22:24.968Z,1.50
2022-08-01T04:24:57.408Z,1.48
2022-08-01T04:27:50.100Z,1.13
2022-08-01T04:30:20.876Z,1.38
2022-08-01T04:32:50.764Z,1.30
2022-08-01T04:35:23.466Z,1.40
2022-08-01T04:38:11.288Z,1.55
2022-08-01T04:40:40.134Z,1.55
2022-08-01T04:43:07.770Z,1.55
2022-08-01T04:45:35.996Z,1.20
2022-08-01T04:48:05.001Z,1.48
2022-08-01T04:50:33.928Z,1.33
2022-08-01T04:53:03.972Z,1.52
2022-08-01T04:55:32.285Z,1.30
2022-08-01T04:57:59.776Z,1.70
2022-08-01T05:00:29.387Z,1.75
2022-08-01T05:02:58.346Z,1.60
2022-08-01T05:05:27.233Z,2.70
2022-08-01T05:07:56.771Z,2.00
2022-08-01T05:10:24.218Z,1.67
2022-08-01T05:12:51.630Z,1.70
2022-08-01T05:15:19.111Z,1.73
2022-08-01T05:17:47.739Z,1.60
2022-08-01T05:20:15.496Z,1.80
2022-08-01T05:22:43.639Z,1.70
2022-08-01T05:25:12.468Z,1.80
2022-08-01T05:27:49.989Z,1.55
2022-08-01T05:30:18.669Z,1.60
2022-08-01T05:32:46.214Z,1.63
2022-08-01T05:35:13.636Z,1.60
2022-08-01T05:37:41.075Z,1.80
2022-08-01T05:40:09.697Z,1.40
2022-08-01T05:42:38.503Z,1.40
2022-08-01T05:45:07.145Z,1.63
2022-08-01T05:47:34.580Z,1.50
2022-08-01T05:50:01.987Z,1.48
2022-08-01T05:52:31.796Z,1.08
2022-08-01T05:54:59.223Z,1.27
2022-08-01T05:57:26.817Z,1.50
2022-08-01T05:59:55.960Z,1.52
2022-08-01T06:02:23.495Z,1.40
2022-08-01T06:04:51.025Z,1.10
2022-08-01T06:07:18.612Z,1.30
2022-08-01T06:09:46.032Z,0.90
2022-08-01T06:12:13.433Z,1.13
2022-08-01T06:14:40.857Z,1.25
2022-08-01T06:17:09.573Z,1.30
2022-08-01T06:19:37.004Z,1.27
2022-08-01T06:22:04.717Z,1.65
2022-08-01T06:24:32.349Z,1.30
2022-08-01T06:26:59.760Z,1.00
2022-08-01T06:29:27.172Z,1.23
2022-08-01T06:31:58.759Z,1.33
2022-08-01T06:34:27.599Z,1.50
2022-08-01T06:36:55.003Z,0.88
2022-08-01T06:39:22.484Z,1.10
2022-08-01T06:41:49.945Z,1.42
2022-08-01T06:44:17.380Z,1.13
2022-08-01T06:46:45.132Z,1.15
2022-08-01T06:49:12.635Z,1.00
2022-08-01T06:51:41.559Z,1.50
2022-08-01T06:54:08.970Z,1.42
2022-08-01T06:56:36.435Z,1.80
2022-08-01T06:59:03.961Z,1.92
2022-08-01T07:01:35.173Z,1.67
2022-08-01T07:04:03.448Z,1.73
2022-08-01T07:06:31.230Z,1.70
2022-08-01T07:09:08.267Z,1.60
2022-08-01T07:11:36.986Z,1.70
2022-08-01T07:14:04.477Z,2.25
2022-08-01T07:16:31.944Z,1.83
2022-08-01T07:18:59.348Z,1.80
2022-08-01T07:21:40.630Z,1.70
2022-08-01T07:24:12.948Z,1.67
2022-08-01T07:26:41.308Z,1.90
2022-08-01T07:29:20.430Z,2.10
2022-08-01T07:31:47.873Z,2.08
2022-08-01T07:34:15.266Z,2.50
2022-08-01T07:36:42.670Z,2.33
2022-08-01T07:39:11.446Z,2.22
2022-08-01T07:41:53.412Z,2.25
2022-08-01T07:44:28.355Z,2.15
2022-08-01T07:46:56.803Z,2.90
2022-08-01T07:49:24.344Z,2.40
2022-08-01T07:52:04.010Z,2.17
2022-08-01T07:54:40.490Z,1.92
2022-08-01T07:57:08.029Z,2.63
2022-08-01T07:59:35.927Z,2.08
2022-08-01T08:02:03.631Z,2.15
2022-08-01T08:04:31.545Z,1.52
2022-08-01T08:06:59.020Z,1.38
2022-08-01T08:09:26.417Z,1.98
2022-08-01T08:11:55.160Z,1.17
2022-08-01T08:14:23.705Z,1.60
2022-08-01T08:17:00.083Z,1.30
2022-08-01T08:19:37.359Z,1.40
2022-08-01T08:22:06.668Z,1.20
2022-08-01T08:24:34.344Z,1.30
2022-08-01T08:27:03.647Z,1.40
2022-08-01T08:29:33.319Z,1.27
2022-08-01T08:32:01.656Z,1.27
2022-08-01T08:34:30.657Z,1.27
2022-08-01T08:36:59.990Z,1.42
2022-08-01T08:39:30.409Z,1.00
2022-08-01T08:41:59.570Z,1.27
2022-08-01T08:44:28.372Z,0.90
2022-08-01T08:46:59.642Z,1.20
2022-08-01T08:49:36.253Z,1.00
2022-08-01T08:52:09.010Z,1.05
2022-08-01T08:54:38.882Z,0.90
2022-08-01T08:57:07.854Z,0.80
2022-08-01T08:59:36.751Z,0.82
2022-08-01T09:02:07.922Z,0.82
2022-08-01T09:04:36.046Z,0.57
2022-08-01T09:07:05.886Z,0.93
2022-08-01T09:09:33.815Z,0.70
2022-08-01T09:12:01.247Z,0.57
2022-08-01T09:14:31.267Z,0.82
2022-08-01T09:17:07.523Z,1.48
2022-08-01T09:19:41.438Z,0.80
2022-08-01T09:22:10.958Z,0.82
2022-08-01T09:24:40.051Z,1.00
2022-08-01T09:27:19.865Z,0.80
2022-08-01T09:29:49.850Z,0.80
2022-08-01T09:32:34.750Z,0.82
2022-08-01T09:35:30.965Z,0.90
2022-08-01T09:38:19.313Z,0.98
2022-08-01T09:40:55.047Z,1.15
2022-08-01T09:43:25.254Z,0.77
2022-08-01T09:45:55.262Z,1.05
2022-08-01T09:48:27.993Z,0.90
2022-08-01T09:51:04.169Z,0.88
2022-08-01T09:53:50.954Z,1.17
2022-08-01T09:56:19.195Z,0.80
2022-08-01T09:59:00.965Z,0.80
2022-08-01T10:01:35.946Z,0.60
2022-08-01T10:04:09.841Z,0.80
2022-08-01T10:09:06.100Z,0.88
2022-08-01T10:11:36.555Z,0.65
2022-08-01T10:14:05.627Z,0.50
2022-08-01T10:16:35.615Z,1.70
2022-08-01T10:19:06.906Z,0.63
2022-08-01T10:21:58.381Z,0.63
2022-08-01T10:24:27.959Z,0.65
2022-08-01T10:27:05.970Z,0.60
2022-08-01T10:29:46.011Z,0.50
2022-08-01T10:32:14.941Z,0.60
2022-08-01T10:34:44.860Z,0.50
2022-08-01T10:37:14.959Z,0.50
2022-08-01T10:39:43.271Z,0.50
2022-08-01T10:42:15.765Z,0.50
2022-08-01T10:44:47.145Z,0.40
2022-08-01T10:47:23.274Z,0.60
2022-08-01T10:50:03.647Z,0.50
2022-08-01T10:52:36.540Z,0.60
2022-08-01T10:55:10.274Z,0.40
2022-08-01T10:57:52.570Z,0.30
2022-08-01T11:00:21.428Z,0.50
2022-08-01T11:03:01.466Z,0.30
2022-08-01T11:05:32.291Z,0.25
2022-08-01T11:08:05.033Z,0.50
2022-08-01T11:10:39.825Z,0.38
2022-08-01T11:13:08.822Z,0.40
2022-08-01T11:15:36.853Z,0.45
2022-08-01T11:18:33.783Z,0.20
2022-08-01T11:21:56.274Z,0.40
2022-08-01T11:23:54.420Z,0.20
2022-08-01T11:26:29.342Z,0.20
2022-08-01T11:29:22.007Z,0.30
2022-08-01T11:31:51.081Z,0.35
2022-08-01T11:34:18.582Z,0.40
2022-08-01T11:37:01.686Z,0.30
2022-08-01T11:39:36.800Z,0.20
2022-08-01T11:42:20.816Z,0.20
2022-08-01T11:44:52.390Z,0.20
2022-08-01T11:47:21.251Z,0.30
2022-08-01T11:49:51.684Z,0.30
2022-08-01T11:52:25.416Z,0.30
2022-08-01T11:54:56.170Z,0.60
2022-08-01T11:57:34.292Z,0.30
2022-08-01T12:00:08.783Z,0.50
2022-08-01T12:02:37.125Z,0.43
2022-08-01T12:05:08.401Z,0.35
2022-08-01T12:07:40.585Z,0.47
2022-08-01T12:10:10.998Z,0.30
2022-08-01T12:12:43.613Z,0.40
2022-08-01T12:15:12.448Z,0.30
2022-08-01T12:17:46.973Z,0.40
2022-08-01T12:20:31.238Z,0.40
2022-08-01T12:23:00.883Z,0.25
2022-08-01T12:25:29.979Z,0.30
2022-08-01T12:28:01.973Z,0.40
2022-08-01T12:30:31.646Z,0.38
2022-08-01T12:32:59.900Z,0.50
2022-08-01T12:35:29.146Z,0.40
2022-08-01T12:37:58.406Z,0.50
2022-08-01T12:40:28.697Z,0.32
2022-08-01T12:42:58.481Z,0.45
2022-08-01T12:45:27.659Z,0.38
2022-08-01T12:47:58.479Z,0.50
2022-08-01T12:50:29.127Z,0.40
2022-08-01T12:52:56.796Z,0.50
2022-08-01T12:55:34.246Z,0.43
2022-08-01T12:58:15.284Z,0.40
2022-08-01T13:00:45.459Z,0.28
2022-08-01T13:03:15.222Z,0.40
2022-08-01T13:05:44.829Z,0.40
2022-08-01T13:08:13.434Z,0.35
2022-08-01T13:10:42.097Z,0.40
2022-08-01T13:13:11.463Z,0.30
2022-08-01T13:15:49.834Z,0.30
2022-08-01T13:18:27.339Z,0.40
2022-08-01T13:21:10.445Z,0.30
2022-08-01T13:24:03.407Z,0.43
2022-08-01T13:26:39.719Z,0.40
2022-08-01T13:29:10.191Z,0.50
2022-08-01T13:31:39.276Z,0.20
2022-08-01T13:34:07.422Z,0.25
2022-08-01T13:36:35.045Z,0.30
2022-08-01T13:39:20.414Z,0.20
2022-08-01T13:41:48.550Z,0.10
2022-08-01T13:44:17.390Z,0.30
2022-08-01T13:46:49.278Z,0.20
2022-08-01T13:49:17.698Z,0.20
2022-08-01T13:51:47.266Z,0.20
2022-08-01T13:54:14.711Z,0.30
2022-08-01T13:56:42.593Z,0.20
2022-08-01T13:59:09.991Z,0.25
2022-08-01T14:01:38.849Z,0.20
2022-08-01T14:04:06.421Z,0.30
2022-08-01T14:06:35.899Z,0.30
2022-08-01T14:09:03.827Z,0.30
2022-08-01T14:11:46.198Z,0.30
2022-08-01T14:14:13.850Z,0.20
2022-08-01T14:16:45.902Z,0.40
2022-08-01T14:19:13.517Z,0.20
2022-08-01T14:21:40.923Z,0.30
2022-08-01T14:24:09.281Z,0.32
2022-08-01T14:26:36.813Z,0.30
2022-08-01T14:29:04.370Z,0.30
2022-08-01T14:31:34.338Z,0.30
2022-08-01T14:34:03.880Z,0.40
2022-08-01T14:36:32.534Z,0.40
2022-08-01T14:39:05.943Z,0.50
2022-08-01T14:41:34.644Z,0.40
2022-08-01T14:44:02.430Z,0.50
2022-08-01T14:46:29.878Z,0.40
2022-08-01T14:48:59.150Z,0.30
2022-08-01T14:51:28.347Z,0.32
2022-08-01T14:53:56.644Z,0.30
2022-08-01T14:56:24.774Z,0.28
2022-08-01T14:58:52.180Z,0.30
2022-08-01T15:01:19.721Z,0.30
2022-08-01T15:03:48.846Z,0.40
2022-08-01T15:06:16.291Z,0.50
2022-08-01T15:08:45.439Z,0.40
2022-08-01T15:11:12.955Z,0.32
2022-08-01T15:13:42.583Z,0.35
2022-08-01T15:16:11.985Z,0.40
2022-08-01T15:18:39.600Z,0.20
2022-08-01T15:21:07.165Z,0.40
2022-08-01T15:23:34.570Z,0.43
2022-08-01T15:26:03.329Z,0.30
2022-08-01T15:28:30.762Z,0.40
2022-08-01T15:30:59.714Z,0.30
2022-08-01T15:33:27.131Z,0.28
2022-08-01T15:35:54.552Z,0.30
2022-08-01T15:38:22.616Z,0.40
2022-08-01T15:40:50.128Z,0.40
2022-08-01T15:43:18.873Z,0.40
2022-08-01T15:45:48.233Z,0.40
2022-08-01T15:48:16.564Z,0.30
2022-08-01T15:50:44.003Z,0.32
2022-08-01T15:53:11.540Z,0.45
2022-08-01T15:55:40.027Z,0.40
2022-08-01T15:58:08.185Z,0.50
2022-08-01T16:00:40.620Z,0.40
2022-08-01T16:03:10.054Z,0.50
2022-08-01T16:05:43.147Z,0.40
2022-08-01T16:10:39.306Z,0.50
2022-08-01T16:13:07.484Z,0.50
2022-08-01T16:15:36.563Z,0.40
2022-08-01T16:18:06.188Z,0.35
2022-08-01T16:20:34.019Z,0.50
2022-08-01T16:23:01.486Z,0.30
2022-08-01T16:25:28.901Z,0.30
2022-08-01T16:27:56.344Z,0.30
2022-08-01T16:30:24.007Z,0.30
2022-08-01T16:32:52.482Z,0.50
2022-08-01T16:35:22.609Z,0.38
2022-08-01T16:37:51.921Z,0.40
2022-08-01T16:40:19.350Z,0.25
2022-08-01T16:42:46.759Z,0.40
2022-08-01T16:45:15.508Z,0.40
2022-08-01T16:47:43.456Z,0.25
2022-08-01T16:50:10.867Z,0.20
2022-08-01T16:52:41.953Z,0.30
2022-08-01T16:55:10.978Z,0.30
2022-08-01T16:57:38.691Z,0.50
2022-08-01T17:00:08.114Z,0.40
2022-08-01T17:02:35.867Z,0.30
2022-08-01T17:05:08.572Z,0.40
2022-08-01T17:07:42.003Z,0.57
2022-08-01T17:10:11.661Z,0.32
2022-08-01T17:12:39.459Z,0.40
2022-08-01T17:15:08.205Z,0.50
2022-08-01T17:17:35.809Z,0.30
2022-08-01T17:20:03.332Z,0.28
2022-08-01T17:22:30.782Z,0.20
2022-08-01T17:24:59.519Z,0.38
2022-08-01T17:27:27.027Z,0.32
2022-08-01T17:29:54.432Z,0.35
2022-08-01T17:32:21.843Z,0.75
2022-08-01T17:34:49.990Z,1.90
2022-08-01T17:37:17.386Z,1.10
2022-08-01T17:39:44.865Z,1.10
2022-08-01T17:42:13.719Z,0.38
2022-08-01T17:44:41.588Z,2.38
2022-08-01T17:47:24.232Z,7.03
2022-08-01T17:50:03.812Z,0.57
2022-08-01T17:52:32.077Z,0.22
2022-08-01T17:55:00.068Z,2.90
2022-08-01T17:57:30.750Z,9.35
2022-08-01T17:59:58.857Z,1.00
2022-08-01T18:02:27.158Z,1.02
2022-08-01T18:04:54.605Z,1.25
2022-08-01T18:08:00.644Z,1.10
2022-08-01T18:10:11.642Z,1.10
2022-08-01T18:12:41.619Z,0.50
2022-08-01T18:15:09.884Z,0.40
2022-08-01T18:17:42.653Z,0.55
2022-08-01T18:20:11.517Z,0.15
2022-08-01T18:22:39.441Z,0.30
2022-08-01T18:25:08.873Z,0.35
2022-08-01T18:28:18.976Z,0.30
2022-08-01T18:30:28.884Z,0.40
2022-08-01T18:32:56.835Z,0.60
2022-08-01T18:35:33.048Z,0.43
2022-08-01T18:38:12.279Z,0.30
2022-08-01T18:40:41.306Z,0.40
2022-08-01T18:43:08.887Z,0.30
2022-08-01T18:45:42.597Z,0.20
2022-08-01T18:48:10.586Z,0.32
2022-08-01T18:50:38.389Z,0.30
2022-08-01T18:53:05.934Z,0.30
2022-08-01T18:55:33.350Z,0.40
2022-08-01T18:58:00.770Z,0.30
2022-08-01T19:00:28.438Z,0.30
2022-08-01T19:02:57.224Z,0.20
2022-08-01T19:05:24.660Z,0.30
2022-08-01T19:08:06.616Z,0.25
2022-08-01T19:10:35.016Z,0.40
2022-08-01T19:13:02.916Z,0.30
2022-08-01T19:15:30.534Z,0.40
2022-08-01T19:17:59.278Z,0.32
2022-08-01T19:20:26.970Z,0.38
2022-08-01T19:22:54.462Z,0.30
2022-08-01T19:25:22.635Z,0.50
2022-08-01T19:27:51.288Z,0.35
2022-08-01T19:30:19.925Z,0.50
2022-08-01T19:32:49.205Z,0.32
2022-08-01T19:35:17.961Z,0.43
2022-08-01T19:37:47.611Z,0.40
2022-08-01T19:40:26.622Z,0.38
2022-08-01T19:42:56.854Z,0.40
2022-08-01T19:45:24.694Z,0.30
2022-08-01T19:47:56.720Z,0.30
2022-08-01T19:50:26.588Z,0.32
2022-08-01T19:52:55.986Z,0.50
2022-08-01T19:55:25.228Z,0.30
2022-08-01T20:00:42.657Z,0.65
2022-08-01T20:03:11.048Z,0.70
2022-08-01T20:05:40.890Z,0.40
2022-08-01T20:08:08.927Z,0.47
2022-08-01T20:10:38.360Z,0.52
2022-08-01T20:13:06.202Z,0.57
2022-08-01T20:15:33.604Z,0.40
2022-08-01T20:18:01.447Z,0.50
2022-08-01T20:20:28.916Z,0.47
2022-08-01T20:22:58.968Z,0.40
2022-08-01T20:25:39.530Z,0.55
2022-08-01T20:28:10.646Z,0.70
2022-08-01T20:30:38.403Z,0.43
2022-08-01T20:33:07.003Z,0.50
2022-08-01T20:35:51.721Z,0.68
2022-08-01T20:38:32.531Z,0.70
2022-08-01T20:41:02.731Z,0.55
2022-08-01T20:43:30.824Z,0.68
2022-08-01T20:45:58.913Z,0.60
2022-08-01T20:48:27.936Z,0.90
2022-08-01T20:51:13.337Z,0.60
2022-08-01T20:53:43.636Z,0.65
2022-08-01T20:56:16.806Z,0.68
2022-08-01T20:58:58.583Z,0.77
2022-08-01T21:01:29.469Z,0.70
2022-08-01T21:04:09.643Z,0.95
2022-08-01T21:06:38.834Z,0.45
2022-08-01T21:09:07.964Z,0.70
2022-08-01T21:11:42.766Z,0.65
2022-08-01T21:14:13.037Z,0.50
2022-08-01T21:16:44.570Z,0.57
2022-08-01T21:19:19.951Z,0.65
2022-08-01T21:21:52.131Z,0.50
2022-08-01T21:24:25.478Z,0.93
2022-08-01T21:26:53.491Z,0.73
2022-08-01T21:29:22.344Z,0.95
2022-08-01T21:32:11.360Z,0.57
2022-08-01T21:34:40.066Z,0.55
2022-08-01T21:37:09.187Z,0.63
2022-08-01T21:39:39.132Z,0.68
2022-08-01T21:42:09.409Z,0.57
2022-08-01T21:44:39.275Z,0.82
2022-08-01T21:47:11.969Z,0.57
2022-08-01T21:49:40.324Z,0.70
2022-08-01T21:52:12.033Z,0.70
2022-08-01T21:54:53.963Z,0.82
2022-08-01T22:00:07.469Z,0.60
2022-08-01T22:02:39.014Z,0.77
2022-08-01T22:05:09.039Z,0.73
2022-08-01T22:07:40.318Z,0.70
2022-08-01T22:10:13.764Z,0.70
2022-08-01T22:12:41.236Z,0.60
2022-08-01T22:15:09.780Z,0.47
2022-08-01T22:17:37.494Z,0.60
2022-08-01T22:20:06.328Z,0.52
2022-08-01T22:22:51.131Z,0.70
2022-08-01T22:25:21.415Z,0.90
2022-08-01T22:28:08.923Z,0.68
2022-08-01T22:30:41.526Z,0.50
2022-08-01T22:33:17.240Z,0.70
2022-08-01T22:35:46.189Z,0.75
2022-08-01T22:38:13.753Z,0.60
2022-08-01T22:40:48.923Z,0.68
2022-08-01T22:43:25.558Z,0.90
2022-08-01T22:46:01.624Z,0.60
2022-08-01T22:48:36.795Z,0.80
2022-08-01T22:51:08.782Z,0.70
2022-08-01T22:53:46.785Z,0.80
2022-08-01T22:56:15.793Z,0.70
2022-08-01T22:58:44.653Z,0.75
2022-08-01T23:01:21.153Z,1.58
2022-08-01T23:03:51.758Z,0.63
2022-08-01T23:06:23.817Z,0.88
2022-08-01T23:08:51.463Z,0.60
2022-08-01T23:11:23.240Z,0.85
2022-08-01T23:13:52.984Z,0.77
2022-08-01T23:16:21.255Z,0.80
2022-08-01T23:18:50.176Z,0.95
2022-08-01T23:21:19.229Z,0.60
2022-08-01T23:23:48.020Z,0.75
2022-08-01T23:26:16.061Z,0.75
2022-08-01T23:28:46.569Z,0.80
2022-08-01T23:31:14.962Z,0.95
2022-08-01T23:33:42.402Z,0.60
2022-08-01T23:36:09.891Z,0.68
2022-08-01T23:38:37.372Z,1.10
2022-08-01T23:41:14.698Z,0.88
2022-08-01T23:43:52.387Z,0.98
2022-08-01T23:46:21.377Z,0.85
2022-08-01T23:48:48.885Z,0.60
2022-08-01T23:51:24.334Z,0.70
2022-08-01T23:53:51.991Z,0.90
2022-08-01T23:56:25.396Z,0.88
2022-08-01T23:58:54.316Z,0.88
